sensor_id;sensor_type;location;lat;lon;timestamp;temperature;humidity
7360;DHT22;3720;48.274;7.796;2022-10-23T00:00:27;13.20;99.90
7360;DHT22;3720;48.274;7.796;2022-10-23T00:03:00;13.10;99.90
7360;DHT22;3720;48.274;7.796;2022-10-23T00:05:32;13.10;99.90
7360;DHT22;3720;48.274;7.796;2022-10-23T00:08:04;13.10;99.90
7360;DHT22;3720;48.274;7.796;2022-10-23T00:10:40;13.10;99.90
7360;DHT22;3720;48.274;7.796;2022-10-23T00:13:12;13.20;99.90
7360;DHT22;3720;48.274;7.796;2022-10-23T00:15:44;13.20;99.90
7360;DHT22;3720;48.274;7.796;2022-10-23T00:18:16;13.30;99.90
7360;DHT22;3720;48.274;7.796;2022-10-23T00:20:48;13.30;99.90
7360;DHT22;3720;48.274;7.796;2022-10-23T00:23:20;13.30;99.90
7360;DHT22;3720;48.274;7.796;2022-10-23T00:25:53;13.30;99.90
7360;DHT22;3720;48.274;7.796;2022-10-23T00:28:25;13.40;99.90
7360;DHT22;3720;48.274;7.796;2022-10-23T00:30:58;13.40;99.90
7360;DHT22;3720;48.274;7.796;2022-10-23T00:33:32;13.30;99.90
7360;DHT22;3720;48.274;7.796;2022-10-23T00:36:05;13.30;99.90
7360;DHT22;3720;48.274;7.796;2022-10-23T00:38:38;13.30;99.90
7360;DHT22;3720;48.274;7.796;2022-10-23T00:41:14;13.30;99.90
7360;DHT22;3720;48.274;7.796;2022-10-23T00:44:00;13.40;99.90
7360;DHT22;3720;48.274;7.796;2022-10-23T00:46:33;13.40;99.90
7360;DHT22;3720;48.274;7.796;2022-10-23T00:49:06;13.30;99.90
7360;DHT22;3720;48.274;7.796;2022-10-23T00:51:40;13.30;99.90
7360;DHT22;3720;48.274;7.796;2022-10-23T00:54:17;13.30;99.90
7360;DHT22;3720;48.274;7.796;2022-10-23T00:56:52;13.30;99.90
7360;DHT22;3720;48.274;7.796;2022-10-23T00:59:25;13.30;99.90
7360;DHT22;3720;48.274;7.796;2022-10-23T01:01:58;13.30;99.90
7360;DHT22;3720;48.274;7.796;2022-10-23T01:04:31;13.30;99.90
7360;DHT22;3720;48.274;7.796;2022-10-23T01:07:08;13.30;99.90
7360;DHT22;3720;48.274;7.796;2022-10-23T01:09:46;13.20;99.90
7360;DHT22;3720;48.274;7.796;2022-10-23T01:12:29;13.10;99.90
7360;DHT22;3720;48.274;7.796;2022-10-23T01:15:08;13.10;99.90
7360;DHT22;3720;48.274;7.796;2022-10-23T01:17:45;13.20;99.90
7360;DHT22;3720;48.274;7.796;2022-10-23T01:20:30;13.10;99.90
7360;DHT22;3720;48.274;7.796;2022-10-23T01:23:12;13.00;99.90
7360;DHT22;3720;48.274;7.796;2022-10-23T01:26:00;13.00;99.90
7360;DHT22;3720;48.274;7.796;2022-10-23T01:28:41;13.00;99.90
7360;DHT22;3720;48.274;7.796;2022-10-23T01:31:17;13.00;99.90
7360;DHT22;3720;48.274;7.796;2022-10-23T01:33:54;13.00;99.90
7360;DHT22;3720;48.274;7.796;2022-10-23T01:36:29;13.00;99.90
7360;DHT22;3720;48.274;7.796;2022-10-23T01:39:06;13.00;99.90
7360;DHT22;3720;48.274;7.796;2022-10-23T01:41:44;13.10;99.90
7360;DHT22;3720;48.274;7.796;2022-10-23T01:44:23;13.00;99.90
7360;DHT22;3720;48.274;7.796;2022-10-23T01:46:57;13.10;99.90
7360;DHT22;3720;48.274;7.796;2022-10-23T01:49:31;13.10;99.90
7360;DHT22;3720;48.274;7.796;2022-10-23T01:52:06;13.10;99.90
7360;DHT22;3720;48.274;7.796;2022-10-23T01:54:41;13.10;99.90
7360;DHT22;3720;48.274;7.796;2022-10-23T01:57:17;13.00;99.90
7360;DHT22;3720;48.274;7.796;2022-10-23T01:59:57;12.90;99.90
7360;DHT22;3720;48.274;7.796;2022-10-23T02:02:31;13.00;99.90
7360;DHT22;3720;48.274;7.796;2022-10-23T02:05:06;13.00;99.90
7360;DHT22;3720;48.274;7.796;2022-10-23T02:07:39;13.00;99.90
7360;DHT22;3720;48.274;7.796;2022-10-23T02:10:12;13.00;99.90
7360;DHT22;3720;48.274;7.796;2022-10-23T02:12:49;13.00;99.90
7360;DHT22;3720;48.274;7.796;2022-10-23T02:15:28;13.00;99.90
7360;DHT22;3720;48.274;7.796;2022-10-23T02:18:06;13.00;99.90
7360;DHT22;3720;48.274;7.796;2022-10-23T02:20:41;13.10;99.90
7360;DHT22;3720;48.274;7.796;2022-10-23T02:23:20;13.10;99.90
7360;DHT22;3720;48.274;7.796;2022-10-23T02:25:56;13.10;99.90
7360;DHT22;3720;48.274;7.796;2022-10-23T02:28:36;13.10;99.90
7360;DHT22;3720;48.274;7.796;2022-10-23T02:31:13;13.20;99.90
7360;DHT22;3720;48.274;7.796;2022-10-23T02:33:46;13.20;99.90
7360;DHT22;3720;48.274;7.796;2022-10-23T02:36:19;13.30;99.90
7360;DHT22;3720;48.274;7.796;2022-10-23T02:38:51;13.30;99.90
7360;DHT22;3720;48.274;7.796;2022-10-23T02:41:31;13.40;99.90
7360;DHT22;3720;48.274;7.796;2022-10-23T02:44:23;13.40;99.90
7360;DHT22;3720;48.274;7.796;2022-10-23T02:47:07;13.50;99.90
7360;DHT22;3720;48.274;7.796;2022-10-23T02:49:45;13.50;99.90
7360;DHT22;3720;48.274;7.796;2022-10-23T02:52:22;13.50;99.90
7360;DHT22;3720;48.274;7.796;2022-10-23T02:55:04;13.40;99.90
7360;DHT22;3720;48.274;7.796;2022-10-23T02:57:41;13.50;99.90
7360;DHT22;3720;48.274;7.796;2022-10-23T03:00:17;13.40;99.90
7360;DHT22;3720;48.274;7.796;2022-10-23T03:02:54;13.30;99.90
7360;DHT22;3720;48.274;7.796;2022-10-23T03:05:30;13.30;99.90
7360;DHT22;3720;48.274;7.796;2022-10-23T03:08:03;13.20;99.90
7360;DHT22;3720;48.274;7.796;2022-10-23T03:10:35;13.20;99.90
7360;DHT22;3720;48.274;7.796;2022-10-23T03:13:08;13.10;99.90
7360;DHT22;3720;48.274;7.796;2022-10-23T03:15:41;13.10;99.90
7360;DHT22;3720;48.274;7.796;2022-10-23T03:18:14;13.10;99.90
7360;DHT22;3720;48.274;7.796;2022-10-23T03:20:45;13.20;99.90
7360;DHT22;3720;48.274;7.796;2022-10-23T03:23:17;13.20;99.90
7360;DHT22;3720;48.274;7.796;2022-10-23T03:25:49;13.10;99.90
7360;DHT22;3720;48.274;7.796;2022-10-23T03:28:22;13.10;99.90
7360;DHT22;3720;48.274;7.796;2022-10-23T03:30:54;13.00;99.90
7360;DHT22;3720;48.274;7.796;2022-10-23T03:33:28;13.00;99.90
7360;DHT22;3720;48.274;7.796;2022-10-23T03:36:00;13.10;99.90
7360;DHT22;3720;48.274;7.796;2022-10-23T03:38:32;13.10;99.90
7360;DHT22;3720;48.274;7.796;2022-10-23T03:41:04;13.20;99.90
7360;DHT22;3720;48.274;7.796;2022-10-23T03:43:36;13.20;99.90
7360;DHT22;3720;48.274;7.796;2022-10-23T03:46:07;13.20;99.90
7360;DHT22;3720;48.274;7.796;2022-10-23T03:48:43;13.20;99.90
7360;DHT22;3720;48.274;7.796;2022-10-23T03:51:15;13.20;99.90
7360;DHT22;3720;48.274;7.796;2022-10-23T03:53:47;13.20;99.90
7360;DHT22;3720;48.274;7.796;2022-10-23T03:56:19;13.20;99.90
7360;DHT22;3720;48.274;7.796;2022-10-23T03:58:51;13.20;99.90
7360;DHT22;3720;48.274;7.796;2022-10-23T04:01:23;13.20;99.90
7360;DHT22;3720;48.274;7.796;2022-10-23T04:03:57;13.30;99.90
7360;DHT22;3720;48.274;7.796;2022-10-23T04:06:29;13.20;99.90
7360;DHT22;3720;48.274;7.796;2022-10-23T04:09:01;13.10;99.90
7360;DHT22;3720;48.274;7.796;2022-10-23T04:11:33;13.10;99.90
7360;DHT22;3720;48.274;7.796;2022-10-23T04:14:05;13.10;99.90
7360;DHT22;3720;48.274;7.796;2022-10-23T04:16:37;13.10;99.90
7360;DHT22;3720;48.274;7.796;2022-10-23T04:19:10;13.00;99.90
7360;DHT22;3720;48.274;7.796;2022-10-23T04:21:42;13.00;99.90
7360;DHT22;3720;48.274;7.796;2022-10-23T04:24:14;13.10;99.90
7360;DHT22;3720;48.274;7.796;2022-10-23T04:26:46;13.00;99.90
7360;DHT22;3720;48.274;7.796;2022-10-23T04:29:18;13.00;99.90
7360;DHT22;3720;48.274;7.796;2022-10-23T04:31:51;13.10;99.90
7360;DHT22;3720;48.274;7.796;2022-10-23T04:34:25;13.00;99.90
7360;DHT22;3720;48.274;7.796;2022-10-23T04:36:57;13.10;99.90
7360;DHT22;3720;48.274;7.796;2022-10-23T04:39:29;13.10;99.90
7360;DHT22;3720;48.274;7.796;2022-10-23T04:42:00;13.10;99.90
7360;DHT22;3720;48.274;7.796;2022-10-23T04:44:32;13.10;99.90
7360;DHT22;3720;48.274;7.796;2022-10-23T04:47:04;13.10;99.90
7360;DHT22;3720;48.274;7.796;2022-10-23T04:49:37;13.10;99.90
7360;DHT22;3720;48.274;7.796;2022-10-23T04:52:09;13.00;99.90
7360;DHT22;3720;48.274;7.796;2022-10-23T04:54:41;13.10;99.90
7360;DHT22;3720;48.274;7.796;2022-10-23T04:57:13;13.00;99.90
7360;DHT22;3720;48.274;7.796;2022-10-23T04:59:45;13.00;99.90
7360;DHT22;3720;48.274;7.796;2022-10-23T05:02:16;13.00;99.90
7360;DHT22;3720;48.274;7.796;2022-10-23T05:04:50;13.00;99.90
7360;DHT22;3720;48.274;7.796;2022-10-23T05:07:22;13.00;99.90
7360;DHT22;3720;48.274;7.796;2022-10-23T05:09:54;13.00;99.90
7360;DHT22;3720;48.274;7.796;2022-10-23T05:12:26;12.90;99.90
7360;DHT22;3720;48.274;7.796;2022-10-23T05:14:57;12.90;99.90
7360;DHT22;3720;48.274;7.796;2022-10-23T05:17:33;12.90;99.90
7360;DHT22;3720;48.274;7.796;2022-10-23T05:20:10;12.90;99.90
7360;DHT22;3720;48.274;7.796;2022-10-23T05:22:45;12.90;99.90
7360;DHT22;3720;48.274;7.796;2022-10-23T05:25:19;12.90;99.90
7360;DHT22;3720;48.274;7.796;2022-10-23T05:27:51;12.90;99.90
7360;DHT22;3720;48.274;7.796;2022-10-23T05:30:24;12.90;99.90
7360;DHT22;3720;48.274;7.796;2022-10-23T05:32:56;12.90;99.90
7360;DHT22;3720;48.274;7.796;2022-10-23T05:35:29;12.80;99.90
7360;DHT22;3720;48.274;7.796;2022-10-23T05:38:02;12.60;99.90
7360;DHT22;3720;48.274;7.796;2022-10-23T05:40:34;12.60;99.90
7360;DHT22;3720;48.274;7.796;2022-10-23T05:43:06;12.60;99.90
7360;DHT22;3720;48.274;7.796;2022-10-23T05:45:38;12.60;99.90
7360;DHT22;3720;48.274;7.796;2022-10-23T05:48:10;12.50;99.90
7360;DHT22;3720;48.274;7.796;2022-10-23T05:50:46;12.40;99.90
7360;DHT22;3720;48.274;7.796;2022-10-23T05:53:18;12.40;99.90
7360;DHT22;3720;48.274;7.796;2022-10-23T05:55:50;12.40;99.90
7360;DHT22;3720;48.274;7.796;2022-10-23T05:58:21;12.30;99.90
7360;DHT22;3720;48.274;7.796;2022-10-23T06:00:53;12.20;99.90
7360;DHT22;3720;48.274;7.796;2022-10-23T06:03:25;12.10;99.90
7360;DHT22;3720;48.274;7.796;2022-10-23T06:05:59;12.20;99.90
7360;DHT22;3720;48.274;7.796;2022-10-23T06:08:31;12.10;99.90
7360;DHT22;3720;48.274;7.796;2022-10-23T06:11:05;12.10;99.90
7360;DHT22;3720;48.274;7.796;2022-10-23T06:13:38;12.10;99.90
7360;DHT22;3720;48.274;7.796;2022-10-23T06:16:12;12.00;99.90
7360;DHT22;3720;48.274;7.796;2022-10-23T06:18:45;12.00;99.90
7360;DHT22;3720;48.274;7.796;2022-10-23T06:21:19;12.10;99.90
7360;DHT22;3720;48.274;7.796;2022-10-23T06:23:51;12.10;99.90
7360;DHT22;3720;48.274;7.796;2022-10-23T06:26:23;12.10;99.90
7360;DHT22;3720;48.274;7.796;2022-10-23T06:28:55;12.10;99.90
7360;DHT22;3720;48.274;7.796;2022-10-23T06:31:27;12.10;99.90
7360;DHT22;3720;48.274;7.796;2022-10-23T06:33:59;12.10;99.90
7360;DHT22;3720;48.274;7.796;2022-10-23T06:36:32;12.10;99.90
7360;DHT22;3720;48.274;7.796;2022-10-23T06:39:05;12.10;99.90
7360;DHT22;3720;48.274;7.796;2022-10-23T06:41:36;12.10;99.90
7360;DHT22;3720;48.274;7.796;2022-10-23T06:44:11;12.20;99.90
7360;DHT22;3720;48.274;7.796;2022-10-23T06:46:43;12.20;99.90
7360;DHT22;3720;48.274;7.796;2022-10-23T06:49:17;12.30;99.90
7360;DHT22;3720;48.274;7.796;2022-10-23T06:51:50;12.30;99.90
7360;DHT22;3720;48.274;7.796;2022-10-23T06:54:22;12.50;99.90
7360;DHT22;3720;48.274;7.796;2022-10-23T06:56:54;12.60;99.90
7360;DHT22;3720;48.274;7.796;2022-10-23T06:59:26;12.60;99.90
7360;DHT22;3720;48.274;7.796;2022-10-23T07:01:58;12.50;99.90
7360;DHT22;3720;48.274;7.796;2022-10-23T07:04:30;12.60;99.90
7360;DHT22;3720;48.274;7.796;2022-10-23T07:07:03;12.60;99.90
7360;DHT22;3720;48.274;7.796;2022-10-23T07:09:36;12.60;99.90
7360;DHT22;3720;48.274;7.796;2022-10-23T07:12:08;12.60;99.90
7360;DHT22;3720;48.274;7.796;2022-10-23T07:14:40;12.70;99.90
7360;DHT22;3720;48.274;7.796;2022-10-23T07:17:12;12.70;99.90
7360;DHT22;3720;48.274;7.796;2022-10-23T07:19:45;12.70;99.90
7360;DHT22;3720;48.274;7.796;2022-10-23T07:22:19;13.00;99.90
7360;DHT22;3720;48.274;7.796;2022-10-23T07:24:50;13.40;99.90
7360;DHT22;3720;48.274;7.796;2022-10-23T07:27:22;13.60;99.90
7360;DHT22;3720;48.274;7.796;2022-10-23T07:29:54;13.80;99.90
7360;DHT22;3720;48.274;7.796;2022-10-23T07:32:26;14.10;99.90
7360;DHT22;3720;48.274;7.796;2022-10-23T07:34:58;14.40;99.90
7360;DHT22;3720;48.274;7.796;2022-10-23T07:37:32;14.40;99.90
7360;DHT22;3720;48.274;7.796;2022-10-23T07:40:05;14.60;99.90
7360;DHT22;3720;48.274;7.796;2022-10-23T07:42:38;14.70;99.90
7360;DHT22;3720;48.274;7.796;2022-10-23T07:45:10;14.80;99.90
7360;DHT22;3720;48.274;7.796;2022-10-23T07:47:42;14.80;99.90
7360;DHT22;3720;48.274;7.796;2022-10-23T07:50:14;14.90;99.90
7360;DHT22;3720;48.274;7.796;2022-10-23T07:52:47;15.00;99.90
7360;DHT22;3720;48.274;7.796;2022-10-23T07:55:19;15.00;99.90
7360;DHT22;3720;48.274;7.796;2022-10-23T07:57:51;15.00;99.90
7360;DHT22;3720;48.274;7.796;2022-10-23T08:00:23;15.20;99.90
7360;DHT22;3720;48.274;7.796;2022-10-23T08:02:55;15.30;99.90
7360;DHT22;3720;48.274;7.796;2022-10-23T08:05:27;15.40;99.90
7360;DHT22;3720;48.274;7.796;2022-10-23T08:08:00;15.50;99.90
7360;DHT22;3720;48.274;7.796;2022-10-23T08:10:32;15.60;99.90
7360;DHT22;3720;48.274;7.796;2022-10-23T08:13:03;15.70;99.90
7360;DHT22;3720;48.274;7.796;2022-10-23T08:15:36;15.70;99.90
7360;DHT22;3720;48.274;7.796;2022-10-23T08:18:07;15.70;99.90
7360;DHT22;3720;48.274;7.796;2022-10-23T08:20:40;15.70;99.90
7360;DHT22;3720;48.274;7.796;2022-10-23T08:23:16;15.70;99.90
7360;DHT22;3720;48.274;7.796;2022-10-23T08:25:52;15.80;99.90
7360;DHT22;3720;48.274;7.796;2022-10-23T08:28:27;15.80;99.90
7360;DHT22;3720;48.274;7.796;2022-10-23T08:31:06;15.90;99.90
7360;DHT22;3720;48.274;7.796;2022-10-23T08:33:38;16.00;99.90
7360;DHT22;3720;48.274;7.796;2022-10-23T08:36:16;16.00;99.90
7360;DHT22;3720;48.274;7.796;2022-10-23T08:38:50;16.10;99.90
7360;DHT22;3720;48.274;7.796;2022-10-23T08:41:27;16.20;99.90
7360;DHT22;3720;48.274;7.796;2022-10-23T08:44:10;16.20;99.90
7360;DHT22;3720;48.274;7.796;2022-10-23T08:46:46;16.30;99.90
7360;DHT22;3720;48.274;7.796;2022-10-23T08:49:35;16.40;99.90
7360;DHT22;3720;48.274;7.796;2022-10-23T08:52:14;16.50;99.90
7360;DHT22;3720;48.274;7.796;2022-10-23T08:55:08;16.60;99.90
7360;DHT22;3720;48.274;7.796;2022-10-23T08:57:48;16.80;99.90
7360;DHT22;3720;48.274;7.796;2022-10-23T09:00:22;16.90;99.90
7360;DHT22;3720;48.274;7.796;2022-10-23T09:02:54;17.10;99.90
7360;DHT22;3720;48.274;7.796;2022-10-23T09:05:30;17.20;99.90
7360;DHT22;3720;48.274;7.796;2022-10-23T09:08:11;17.30;99.90
7360;DHT22;3720;48.274;7.796;2022-10-23T09:11:00;17.30;99.90
7360;DHT22;3720;48.274;7.796;2022-10-23T09:16:46;17.40;99.90
7360;DHT22;3720;48.274;7.796;2022-10-23T09:19:24;17.50;99.90
7360;DHT22;3720;48.274;7.796;2022-10-23T09:21:57;17.60;99.90
7360;DHT22;3720;48.274;7.796;2022-10-23T09:24:29;17.60;99.90
7360;DHT22;3720;48.274;7.796;2022-10-23T09:27:04;17.70;99.90
7360;DHT22;3720;48.274;7.796;2022-10-23T09:29:36;17.70;99.90
7360;DHT22;3720;48.274;7.796;2022-10-23T09:32:08;17.90;99.90
7360;DHT22;3720;48.274;7.796;2022-10-23T09:34:50;18.10;99.90
7360;DHT22;3720;48.274;7.796;2022-10-23T09:37:25;18.20;99.90
7360;DHT22;3720;48.274;7.796;2022-10-23T09:40:03;18.30;99.90
7360;DHT22;3720;48.274;7.796;2022-10-23T09:42:53;18.50;99.90
7360;DHT22;3720;48.274;7.796;2022-10-23T09:45:29;18.60;99.90
7360;DHT22;3720;48.274;7.796;2022-10-23T09:48:13;18.60;99.90
7360;DHT22;3720;48.274;7.796;2022-10-23T09:50:49;18.50;99.90
7360;DHT22;3720;48.274;7.796;2022-10-23T09:53:29;18.50;99.90
7360;DHT22;3720;48.274;7.796;2022-10-23T09:56:05;18.40;99.90
7360;DHT22;3720;48.274;7.796;2022-10-23T09:58:54;18.40;99.90
7360;DHT22;3720;48.274;7.796;2022-10-23T10:01:29;18.50;99.90
7360;DHT22;3720;48.274;7.796;2022-10-23T10:04:02;18.60;99.90
7360;DHT22;3720;48.274;7.796;2022-10-23T10:06:34;18.80;99.90
7360;DHT22;3720;48.274;7.796;2022-10-23T10:09:09;19.00;99.90
7360;DHT22;3720;48.274;7.796;2022-10-23T10:11:46;19.30;99.90
7360;DHT22;3720;48.274;7.796;2022-10-23T10:14:41;19.50;99.90
7360;DHT22;3720;48.274;7.796;2022-10-23T10:17:19;19.70;99.90
7360;DHT22;3720;48.274;7.796;2022-10-23T10:20:14;19.60;99.90
7360;DHT22;3720;48.274;7.796;2022-10-23T10:22:52;19.70;99.90
7360;DHT22;3720;48.274;7.796;2022-10-23T10:25:28;19.70;99.90
7360;DHT22;3720;48.274;7.796;2022-10-23T10:28:10;19.70;99.90
7360;DHT22;3720;48.274;7.796;2022-10-23T10:30:53;19.70;99.90
7360;DHT22;3720;48.274;7.796;2022-10-23T10:33:32;19.90;99.90
7360;DHT22;3720;48.274;7.796;2022-10-23T10:36:12;20.00;99.90
7360;DHT22;3720;48.274;7.796;2022-10-23T10:38:49;20.00;99.90
7360;DHT22;3720;48.274;7.796;2022-10-23T10:41:36;20.10;99.90
7360;DHT22;3720;48.274;7.796;2022-10-23T10:44:34;20.10;99.90
7360;DHT22;3720;48.274;7.796;2022-10-23T10:47:14;20.20;99.90
7360;DHT22;3720;48.274;7.796;2022-10-23T10:49:58;20.20;99.90
7360;DHT22;3720;48.274;7.796;2022-10-23T10:52:38;20.20;99.90
7360;DHT22;3720;48.274;7.796;2022-10-23T10:55:19;20.10;99.90
7360;DHT22;3720;48.274;7.796;2022-10-23T10:57:55;20.20;99.90
7360;DHT22;3720;48.274;7.796;2022-10-23T11:00:30;20.20;99.90
7360;DHT22;3720;48.274;7.796;2022-10-23T11:03:13;20.10;99.90
7360;DHT22;3720;48.274;7.796;2022-10-23T11:05:48;20.10;99.90
7360;DHT22;3720;48.274;7.796;2022-10-23T11:08:25;20.00;99.90
7360;DHT22;3720;48.274;7.796;2022-10-23T11:11:05;20.00;99.90
7360;DHT22;3720;48.274;7.796;2022-10-23T11:13:41;20.00;99.90
7360;DHT22;3720;48.274;7.796;2022-10-23T11:16:16;20.00;99.90
7360;DHT22;3720;48.274;7.796;2022-10-23T11:19:00;19.90;99.90
7360;DHT22;3720;48.274;7.796;2022-10-23T11:21:36;19.90;99.90
7360;DHT22;3720;48.274;7.796;2022-10-23T11:24:46;19.90;99.90
7360;DHT22;3720;48.274;7.796;2022-10-23T11:27:30;19.90;99.90
7360;DHT22;3720;48.274;7.796;2022-10-23T11:30:16;19.80;99.90
7360;DHT22;3720;48.274;7.796;2022-10-23T11:33:33;19.80;99.90
7360;DHT22;3720;48.274;7.796;2022-10-23T11:36:12;19.70;99.90
7360;DHT22;3720;48.274;7.796;2022-10-23T11:38:48;19.70;99.90
7360;DHT22;3720;48.274;7.796;2022-10-23T11:41:24;19.70;99.90
7360;DHT22;3720;48.274;7.796;2022-10-23T11:44:00;19.70;99.90
7360;DHT22;3720;48.274;7.796;2022-10-23T11:46:35;19.60;99.90
7360;DHT22;3720;48.274;7.796;2022-10-23T11:49:19;19.70;99.90
7360;DHT22;3720;48.274;7.796;2022-10-23T11:52:03;19.70;99.90
7360;DHT22;3720;48.274;7.796;2022-10-23T11:54:35;19.60;99.90
7360;DHT22;3720;48.274;7.796;2022-10-23T11:57:10;19.60;99.90
7360;DHT22;3720;48.274;7.796;2022-10-23T11:59:52;19.70;99.90
7360;DHT22;3720;48.274;7.796;2022-10-23T12:02:28;19.80;99.90
7360;DHT22;3720;48.274;7.796;2022-10-23T12:05:04;19.90;99.90
7360;DHT22;3720;48.274;7.796;2022-10-23T12:07:39;20.20;99.90
7360;DHT22;3720;48.274;7.796;2022-10-23T12:10:19;20.60;99.90
7360;DHT22;3720;48.274;7.796;2022-10-23T12:12:56;21.00;99.90
7360;DHT22;3720;48.274;7.796;2022-10-23T12:15:28;21.50;99.90
7360;DHT22;3720;48.274;7.796;2022-10-23T12:18:11;21.80;99.90
7360;DHT22;3720;48.274;7.796;2022-10-23T12:20:48;21.90;99.90
7360;DHT22;3720;48.274;7.796;2022-10-23T12:23:38;22.00;99.90
7360;DHT22;3720;48.274;7.796;2022-10-23T12:26:26;21.90;99.90
7360;DHT22;3720;48.274;7.796;2022-10-23T12:29:09;21.80;99.90
7360;DHT22;3720;48.274;7.796;2022-10-23T12:31:47;21.70;99.90
7360;DHT22;3720;48.274;7.796;2022-10-23T12:34:32;21.60;99.90
7360;DHT22;3720;48.274;7.796;2022-10-23T12:37:25;21.60;99.90
7360;DHT22;3720;48.274;7.796;2022-10-23T12:40:01;21.60;99.90
7360;DHT22;3720;48.274;7.796;2022-10-23T12:42:37;21.70;99.90
7360;DHT22;3720;48.274;7.796;2022-10-23T12:45:16;21.70;99.90
7360;DHT22;3720;48.274;7.796;2022-10-23T12:47:50;21.70;99.90
7360;DHT22;3720;48.274;7.796;2022-10-23T12:50:24;21.70;99.90
7360;DHT22;3720;48.274;7.796;2022-10-23T12:52:59;21.70;99.90
7360;DHT22;3720;48.274;7.796;2022-10-23T12:55:46;21.80;99.90
7360;DHT22;3720;48.274;7.796;2022-10-23T12:58:21;21.80;99.90
7360;DHT22;3720;48.274;7.796;2022-10-23T13:00:56;21.80;99.90
7360;DHT22;3720;48.274;7.796;2022-10-23T13:03:30;21.70;99.90
7360;DHT22;3720;48.274;7.796;2022-10-23T13:06:03;21.60;99.90
7360;DHT22;3720;48.274;7.796;2022-10-23T13:08:39;21.60;99.90
7360;DHT22;3720;48.274;7.796;2022-10-23T13:11:16;21.60;99.90
7360;DHT22;3720;48.274;7.796;2022-10-23T13:13:49;21.70;99.90
7360;DHT22;3720;48.274;7.796;2022-10-23T13:16:23;22.10;99.90
7360;DHT22;3720;48.274;7.796;2022-10-23T13:18:55;22.40;99.90
7360;DHT22;3720;48.274;7.796;2022-10-23T13:21:28;22.80;99.90
7360;DHT22;3720;48.274;7.796;2022-10-23T13:24:02;23.00;99.90
7360;DHT22;3720;48.274;7.796;2022-10-23T13:26:38;23.30;99.90
7360;DHT22;3720;48.274;7.796;2022-10-23T13:29:18;23.60;99.90
7360;DHT22;3720;48.274;7.796;2022-10-23T13:31:51;24.00;99.90
7360;DHT22;3720;48.274;7.796;2022-10-23T13:34:25;24.30;99.90
7360;DHT22;3720;48.274;7.796;2022-10-23T13:37:00;24.60;99.90
7360;DHT22;3720;48.274;7.796;2022-10-23T13:39:33;24.60;99.90
7360;DHT22;3720;48.274;7.796;2022-10-23T13:42:11;24.60;99.90
7360;DHT22;3720;48.274;7.796;2022-10-23T13:44:44;24.50;99.90
7360;DHT22;3720;48.274;7.796;2022-10-23T13:47:16;24.40;99.90
7360;DHT22;3720;48.274;7.796;2022-10-23T13:49:47;24.40;99.90
7360;DHT22;3720;48.274;7.796;2022-10-23T13:52:20;24.20;99.90
7360;DHT22;3720;48.274;7.796;2022-10-23T13:54:54;24.10;99.90
7360;DHT22;3720;48.274;7.796;2022-10-23T13:57:27;24.00;99.90
7360;DHT22;3720;48.274;7.796;2022-10-23T13:59:59;23.90;99.90
7360;DHT22;3720;48.274;7.796;2022-10-23T14:02:31;23.80;99.90
7360;DHT22;3720;48.274;7.796;2022-10-23T14:05:03;23.60;99.90
7360;DHT22;3720;48.274;7.796;2022-10-23T14:07:35;23.40;99.90
7360;DHT22;3720;48.274;7.796;2022-10-23T14:10:08;23.20;99.90
7360;DHT22;3720;48.274;7.796;2022-10-23T14:12:42;23.20;99.90
7360;DHT22;3720;48.274;7.796;2022-10-23T14:15:15;23.40;99.90
7360;DHT22;3720;48.274;7.796;2022-10-23T14:17:47;23.80;99.90
7360;DHT22;3720;48.274;7.796;2022-10-23T14:20:19;24.00;99.90
7360;DHT22;3720;48.274;7.796;2022-10-23T14:22:51;24.20;99.90
7360;DHT22;3720;48.274;7.796;2022-10-23T14:25:24;24.50;99.90
7360;DHT22;3720;48.274;7.796;2022-10-23T14:27:57;24.70;99.90
7360;DHT22;3720;48.274;7.796;2022-10-23T14:30:29;24.80;99.90
7360;DHT22;3720;48.274;7.796;2022-10-23T14:33:01;24.80;99.90
7360;DHT22;3720;48.274;7.796;2022-10-23T14:35:33;24.70;99.90
7360;DHT22;3720;48.274;7.796;2022-10-23T14:38:05;24.40;99.90
7360;DHT22;3720;48.274;7.796;2022-10-23T14:40:38;24.10;99.90
7360;DHT22;3720;48.274;7.796;2022-10-23T14:43:11;24.00;99.90
7360;DHT22;3720;48.274;7.796;2022-10-23T14:45:43;23.90;99.90
7360;DHT22;3720;48.274;7.796;2022-10-23T14:48:15;24.00;99.90
7360;DHT22;3720;48.274;7.796;2022-10-23T14:50:48;24.30;99.90
7360;DHT22;3720;48.274;7.796;2022-10-23T14:53:20;24.40;99.90
7360;DHT22;3720;48.274;7.796;2022-10-23T14:55:52;24.40;99.90
7360;DHT22;3720;48.274;7.796;2022-10-23T14:58:25;24.40;99.90
7360;DHT22;3720;48.274;7.796;2022-10-23T15:00:58;24.30;99.90
7360;DHT22;3720;48.274;7.796;2022-10-23T15:03:30;24.20;99.90
7360;DHT22;3720;48.274;7.796;2022-10-23T15:06:03;24.10;99.90
7360;DHT22;3720;48.274;7.796;2022-10-23T15:08:36;24.10;99.90
7360;DHT22;3720;48.274;7.796;2022-10-23T15:11:08;24.10;99.90
7360;DHT22;3720;48.274;7.796;2022-10-23T15:13:42;24.10;99.90
7360;DHT22;3720;48.274;7.796;2022-10-23T15:16:14;24.10;99.90
7360;DHT22;3720;48.274;7.796;2022-10-23T15:18:46;23.90;99.90
7360;DHT22;3720;48.274;7.796;2022-10-23T15:21:18;23.70;99.90
7360;DHT22;3720;48.274;7.796;2022-10-23T15:23:51;23.50;99.90
7360;DHT22;3720;48.274;7.796;2022-10-23T15:26:24;23.40;99.90
7360;DHT22;3720;48.274;7.796;2022-10-23T15:28:59;23.20;99.90
7360;DHT22;3720;48.274;7.796;2022-10-23T15:31:42;23.00;99.90
7360;DHT22;3720;48.274;7.796;2022-10-23T15:34:17;22.80;99.90
7360;DHT22;3720;48.274;7.796;2022-10-23T15:36:50;22.60;99.90
7360;DHT22;3720;48.274;7.796;2022-10-23T15:39:25;22.40;99.90
7360;DHT22;3720;48.274;7.796;2022-10-23T15:41:58;22.30;99.90
7360;DHT22;3720;48.274;7.796;2022-10-23T15:44:32;22.20;99.90
7360;DHT22;3720;48.274;7.796;2022-10-23T15:47:05;22.10;99.90
7360;DHT22;3720;48.274;7.796;2022-10-23T15:49:37;22.00;99.90
7360;DHT22;3720;48.274;7.796;2022-10-23T15:52:09;21.80;99.90
7360;DHT22;3720;48.274;7.796;2022-10-23T15:54:41;21.70;99.90
7360;DHT22;3720;48.274;7.796;2022-10-23T15:57:13;21.60;99.90
7360;DHT22;3720;48.274;7.796;2022-10-23T15:59:47;21.60;99.90
7360;DHT22;3720;48.274;7.796;2022-10-23T16:02:20;21.50;99.90
7360;DHT22;3720;48.274;7.796;2022-10-23T16:04:52;21.40;99.90
7360;DHT22;3720;48.274;7.796;2022-10-23T16:07:24;21.30;99.90
7360;DHT22;3720;48.274;7.796;2022-10-23T16:09:57;21.20;99.90
7360;DHT22;3720;48.274;7.796;2022-10-23T16:12:28;21.10;99.90
7360;DHT22;3720;48.274;7.796;2022-10-23T16:15:02;21.10;99.90
7360;DHT22;3720;48.274;7.796;2022-10-23T16:17:34;21.00;99.90
7360;DHT22;3720;48.274;7.796;2022-10-23T16:20:06;20.90;99.90
7360;DHT22;3720;48.274;7.796;2022-10-23T16:22:38;20.70;99.90
7360;DHT22;3720;48.274;7.796;2022-10-23T16:25:10;20.60;99.90
7360;DHT22;3720;48.274;7.796;2022-10-23T16:27:42;20.50;99.90
7360;DHT22;3720;48.274;7.796;2022-10-23T16:30:16;20.40;99.90
7360;DHT22;3720;48.274;7.796;2022-10-23T16:32:48;20.30;99.90
7360;DHT22;3720;48.274;7.796;2022-10-23T16:35:20;20.30;99.90
7360;DHT22;3720;48.274;7.796;2022-10-23T16:37:52;20.10;99.90
7360;DHT22;3720;48.274;7.796;2022-10-23T16:40:25;20.10;99.90
7360;DHT22;3720;48.274;7.796;2022-10-23T16:42:57;20.00;99.90
7360;DHT22;3720;48.274;7.796;2022-10-23T16:45:30;19.90;99.90
7360;DHT22;3720;48.274;7.796;2022-10-23T16:48:02;19.90;99.90
7360;DHT22;3720;48.274;7.796;2022-10-23T16:50:37;19.80;99.90
7360;DHT22;3720;48.274;7.796;2022-10-23T16:53:09;19.70;99.90
7360;DHT22;3720;48.274;7.796;2022-10-23T16:55:41;19.70;99.90